Time;durP1;ratioP1;P1;durP2;ratioP2;P2;SDS_P1;SDS_P2;PMS_P1;PMS_P2;Temp;Humidity;BMP_temperature;BMP_pressure;BME280_temperature;BME280_humidity;BME280_pressure;Samples;Min_cycle;Max_cycle;Signal;HPM_P1;HPM_P2
2022/01/14 00:01:28;;;;;;;24.63;14.10;;;0.70;99.60;;;;;;6184287;23;20009;-72
2022/01/14 00:03:53;;;;;;;26.90;15.50;;;0.70;99.70;;;;;;6184715;23;20311;-73
2022/01/14 00:06:19;;;;;;;26.58;15.75;;;0.80;99.90;;;;;;6185192;23;20036;-73
2022/01/14 00:08:45;;;;;;;27.90;15.88;;;0.80;99.70;;;;;;6184675;23;20004;-73
2022/01/14 00:11:15;;;;;;;29.85;16.35;;;0.80;99.60;;;;;;6158566;23;20005;-73
2022/01/14 00:13:58;;;;;;;28.33;15.50;;;0.80;99.60;;;;;;6184374;23;20001;-75
2022/01/14 00:16:24;;;;;;;24.70;14.60;;;0.80;99.70;;;;;;6184519;23;20001;-73
2022/01/14 00:18:49;;;;;;;25.98;14.90;;;0.90;99.70;;;;;;6184576;23;20303;-73
2022/01/14 00:21:15;;;;;;;24.10;14.55;;;1.00;99.60;;;;;;6184623;23;20114;-73
2022/01/14 00:23:42;;;;;;;24.13;13.48;;;1.00;99.50;;;;;;6184220;23;20009;-73
2022/01/14 00:31:53;;;;;;;22.05;12.65;;;1.10;99.60;;;;;;6184300;23;20020;-72
2022/01/14 00:34:18;;;;;;;20.33;11.48;;;1.10;99.60;;;;;;6184501;23;20025;-73
2022/01/14 00:36:45;;;;;;;20.08;12.07;;;1.10;99.60;;;;;;6184275;23;20001;-72
2022/01/14 00:39:13;;;;;;;19.98;12.07;;;1.10;99.50;;;;;;6157517;23;20337;-72
2022/01/14 00:41:40;;;;;;;19.13;11.27;;;1.20;99.60;;;;;;6185227;23;20001;-73
2022/01/14 00:44:10;;;;;;;20.65;11.65;;;1.20;99.50;;;;;;6184577;23;20066;-72
2022/01/14 00:46:41;;;;;;;18.88;11.68;;;1.20;99.50;;;;;;6184843;23;20329;-74
2022/01/14 00:49:08;;;;;;;19.80;11.05;;;1.20;99.40;;;;;;6184805;23;20013;-73
2022/01/14 00:51:35;;;;;;;17.52;11.15;;;1.30;99.40;;;;;;6184370;23;20047;-73
2022/01/14 00:54:01;;;;;;;18.35;11.52;;;1.30;99.30;;;;;;6184421;23;20001;-72
2022/01/14 00:56:32;;;;;;;19.95;11.52;;;1.30;99.30;;;;;;6184203;23;20036;-74
2022/01/14 00:59:17;;;;;;;18.55;10.93;;;1.30;99.40;;;;;;6184466;23;20009;-74
2022/01/14 01:01:43;;;;;;;20.55;11.07;;;1.40;99.50;;;;;;6184396;23;20012;-74
2022/01/14 01:04:13;;;;;;;18.85;12.10;;;1.40;99.10;;;;;;6184183;23;20085;-73
2022/01/14 01:06:40;;;;;;;17.77;11.05;;;1.40;99.10;;;;;;6184139;23;20008;-75
2022/01/14 01:09:11;;;;;;;16.92;10.80;;;1.40;99.10;;;;;;6157736;23;20009;-74
2022/01/14 01:11:47;;;;;;;17.70;10.38;;;1.40;99.40;;;;;;6184262;23;20033;-73
2022/01/14 01:14:17;;;;;;;17.85;10.65;;;1.50;99.00;;;;;;6184804;23;20035;-74
2022/01/14 01:16:43;;;;;;;16.17;9.85;;;1.40;99.10;;;;;;6184586;23;20306;-74
2022/01/14 01:19:10;;;;;;;16.95;9.75;;;1.50;99.10;;;;;;6184943;23;20028;-75
2022/01/14 01:21:37;;;;;;;16.13;9.93;;;1.50;99.00;;;;;;6185244;23;20056;-73
2022/01/14 01:24:03;;;;;;;15.13;9.27;;;1.50;99.00;;;;;;6185338;23;20015;-73
2022/01/14 01:26:36;;;;;;;15.70;9.80;;;1.60;98.90;;;;;;6186876;23;20001;-74
2022/01/14 01:29:28;;;;;;;17.02;9.68;;;1.50;98.90;;;;;;6186547;23;20004;-72
2022/01/14 01:31:50;;;;;;;16.30;9.88;;;1.50;98.90;;;;;;6185173;23;20080;-73
2022/01/14 01:34:18;;;;;;;17.45;10.32;;;1.60;98.70;;;;;;6185555;23;20045;-73
2022/01/14 01:36:47;;;;;;;16.73;10.30;;;1.60;98.60;;;;;;6185183;23;20029;-72
2022/01/14 01:39:17;;;;;;;14.48;9.50;;;1.60;98.60;;;;;;6184654;23;19997;-72
2022/01/14 01:41:55;;;;;;;14.13;8.68;;;1.60;98.60;;;;;;6184560;23;20011;-72
2022/01/14 01:44:22;;;;;;;14.18;8.90;;;1.70;98.40;;;;;;6185010;23;20105;-73
2022/01/14 01:46:49;;;;;;;14.07;9.00;;;1.70;98.20;;;;;;6185386;23;20380;-73
2022/01/14 01:49:21;;;;;;;14.93;9.25;;;1.70;98.20;;;;;;6184210;23;20072;-73
2022/01/14 01:51:48;;;;;;;15.07;9.35;;;1.70;98.20;;;;;;6183991;23;20008;-72
2022/01/14 01:54:16;;;;;;;13.93;8.88;;;1.80;98.00;;;;;;6184405;23;19993;-72
2022/01/14 01:56:41;;;;;;;14.65;8.85;;;1.80;98.00;;;;;;6158075;23;20333;-72
2022/01/14 01:59:09;;;;;;;13.85;8.50;;;1.80;98.00;;;;;;6184485;23;20001;-72
2022/01/14 02:01:38;;;;;;;14.38;8.38;;;1.80;98.10;;;;;;6184093;23;20002;-73
2022/01/14 02:04:04;;;;;;;14.18;8.40;;;1.70;98.10;;;;;;6183874;23;20001;-72
2022/01/14 02:06:31;;;;;;;14.32;8.65;;;1.80;97.90;;;;;;6183627;23;20029;-73
2022/01/14 02:08:57;;;;;;;13.02;7.90;;;1.80;97.90;;;;;;6184142;23;20025;-71
2022/01/14 02:11:22;;;;;;;14.88;8.30;;;1.80;97.80;;;;;;6183471;23;20405;-73
2022/01/14 02:13:54;;;;;;;12.93;8.30;;;1.90;97.80;;;;;;6183254;23;20007;-72
2022/01/14 02:24:33;;;;;;;11.93;7.70;;;1.90;97.60;;;;;;6185956;23;20016;-72
2022/01/14 02:27:00;;;;;;;11.57;6.78;;;1.90;97.60;;;;;;6185553;23;20001;-72
2022/01/14 02:29:26;;;;;;;12.95;7.30;;;1.80;97.50;;;;;;6185753;23;20005;-72
2022/01/14 02:31:52;;;;;;;13.98;8.07;;;1.90;97.40;;;;;;6185522;23;20001;-72
2022/01/14 02:34:18;;;;;;;12.80;7.97;;;1.90;97.30;;;;;;6185399;23;20341;-72
2022/01/14 02:36:46;;;;;;;12.18;7.60;;;1.90;97.40;;;;;;6159100;23;20008;-72
2022/01/14 02:39:14;;;;;;;12.02;7.30;;;1.90;97.20;;;;;;6185573;23;20024;-71
2022/01/14 02:41:42;;;;;;;12.07;7.22;;;1.90;97.00;;;;;;6185276;23;20306;-72
2022/01/14 02:44:12;;;;;;;10.63;6.68;;;1.90;97.00;;;;;;6185425;23;20047;-73
2022/01/14 02:46:43;;;;;;;11.68;7.05;;;1.90;97.00;;;;;;6185602;23;20005;-72
2022/01/14 02:49:09;;;;;;;11.68;7.18;;;1.90;97.00;;;;;;6158859;23;20002;-72
2022/01/14 02:51:34;;;;;;;11.40;7.03;;;1.90;96.90;;;;;;6185573;23;20005;-72
2022/01/14 02:54:21;;;;;;;9.90;6.50;;;1.90;96.80;;;;;;6184912;23;20072;-72
2022/01/14 02:56:50;;;;;;;12.50;7.03;;;1.90;96.80;;;;;;6185508;23;20052;-72
2022/01/14 02:59:17;;;;;;;11.50;6.70;;;1.90;96.90;;;;;;6185160;23;20001;-72
2022/01/14 03:01:44;;;;;;;11.02;6.70;;;1.90;96.90;;;;;;6185154;23;20005;-72
2022/01/14 03:04:13;;;;;;;10.63;6.65;;;2.00;96.70;;;;;;6184985;23;20006;-72
2022/01/14 03:06:39;;;;;;;10.52;5.90;;;2.00;96.80;;;;;;6185175;23;20001;-70
2022/01/14 03:09:05;;;;;;;9.75;5.40;;;2.00;96.70;;;;;;6185052;23;20028;-71
2022/01/14 03:11:39;;;;;;;9.77;5.93;;;2.00;96.50;;;;;;6184841;23;20374;-70
2022/01/14 03:14:06;;;;;;;10.10;5.97;;;2.00;96.50;;;;;;6184913;23;20472;-72
2022/01/14 03:16:39;;;;;;;9.48;5.75;;;2.00;96.50;;;;;;6185129;23;20024;-71
2022/01/14 03:19:08;;;;;;;;;;;2.00;96.50;;;;;;6185521;23;20021;-71
2022/01/14 03:21:40;;;;;;;9.40;6.00;;;2.00;96.30;;;;;;6184995;23;20239;-71
2022/01/14 03:26:48;;;;;;;10.18;5.45;;;2.00;96.40;;;;;;6195482;23;20009;-71
2022/01/14 03:29:15;;;;;;;9.57;5.20;;;2.00;96.30;;;;;;6184805;23;20008;-72
2022/01/14 03:31:41;;;;;;;11.63;5.53;;;2.10;96.30;;;;;;6184476;23;20151;-71
2022/01/14 03:34:07;;;;;;;10.10;5.93;;;2.10;96.30;;;;;;6184313;23;20045;-71
2022/01/14 03:36:33;;;;;;;9.70;5.60;;;2.10;96.30;;;;;;6184764;23;20001;-72
2022/01/14 03:38:59;;;;;;;11.38;6.07;;;2.10;96.10;;;;;;6184803;23;20424;-71
2022/01/14 03:41:25;;;;;;;12.68;6.47;;;2.10;96.20;;;;;;6184606;23;20005;-71
2022/01/14 03:43:51;;;;;;;9.13;5.25;;;2.10;96.20;;;;;;6184691;23;20028;-72
2022/01/14 03:46:17;;;;;;;8.23;4.90;;;2.10;96.20;;;;;;6184366;23;20402;-72
2022/01/14 03:48:42;;;;;;;9.07;4.80;;;2.10;96.10;;;;;;6184343;23;20329;-71
2022/01/14 03:51:08;;;;;;;7.85;4.80;;;2.10;96.10;;;;;;6184293;23;20001;-72
2022/01/14 03:53:34;;;;;;;8.43;4.97;;;2.10;96.10;;;;;;6184374;23;19997;-70
2022/01/14 03:55:59;;;;;;;8.60;5.10;;;2.10;96.10;;;;;;6184225;23;20002;-70
2022/01/14 03:58:25;;;;;;;8.45;4.70;;;2.20;96.00;;;;;;6184434;23;19997;-71
2022/01/14 04:00:51;;;;;;;10.00;5.45;;;2.20;96.00;;;;;;6158029;23;20091;-72
2022/01/14 04:03:16;;;;;;;9.68;5.45;;;2.20;96.00;;;;;;6184942;23;20463;-70
2022/01/14 04:05:42;;;;;;;10.40;5.75;;;2.20;96.10;;;;;;6184624;23;20758;-71
2022/01/14 04:08:08;;;;;;;8.10;5.00;;;2.20;96.00;;;;;;6184291;23;20417;-71
2022/01/14 04:10:34;;;;;;;9.23;5.20;;;2.10;96.10;;;;;;6158007;23;20056;-72
2022/01/14 04:13:34;;;;;;;10.15;5.22;;;2.20;96.10;;;;;;6184152;23;20459;-71
2022/01/14 04:15:47;;;;;;;9.88;5.43;;;2.20;96.00;;;;;;6183348;23;20005;-71
2022/01/14 04:18:15;;;;;;;9.43;4.85;;;2.20;96.00;;;;;;6184274;23;20382;-71
2022/01/14 04:20:42;;;;;;;9.10;5.05;;;2.20;96.10;;;;;;6183974;23;20001;-73
2022/01/14 04:23:13;;;;;;;8.90;4.90;;;2.10;96.10;;;;;;6184129;23;20028;-72
2022/01/14 04:25:40;;;;;;;7.95;4.50;;;2.10;96.20;;;;;;6184062;23;20447;-71
2022/01/14 04:28:06;;;;;;;9.07;4.82;;;2.20;96.20;;;;;;6183987;23;20008;-71
2022/01/14 04:30:32;;;;;;;8.88;4.70;;;2.20;96.10;;;;;;6183938;23;20417;-71
2022/01/14 04:32:58;;;;;;;10.02;5.32;;;2.20;96.00;;;;;;6184019;23;20095;-71
2022/01/14 04:35:25;;;;;;;9.73;4.80;;;2.20;96.10;;;;;;6183884;23;20005;-71
2022/01/14 04:37:51;;;;;;;9.38;4.72;;;2.20;96.10;;;;;;6184171;23;20028;-72
2022/01/14 04:40:17;;;;;;;9.20;4.53;;;2.20;96.10;;;;;;6183569;23;20009;-70
2022/01/14 04:42:44;;;;;;;9.93;5.05;;;2.20;96.00;;;;;;6184135;23;20067;-71
2022/01/14 04:45:27;;;;;;;9.93;5.25;;;2.30;96.00;;;;;;6183997;23;20080;-71
2022/01/14 04:47:54;;;;;;;9.45;5.38;;;2.30;95.90;;;;;;6158148;23;20320;-72
2022/01/14 04:50:22;;;;;;;10.85;5.18;;;2.30;96.00;;;;;;6183712;23;20005;-71
2022/01/14 04:52:48;;;;;;;10.75;6.13;;;2.30;95.70;;;;;;6183625;23;20009;-71
2022/01/14 04:55:17;;;;;;;10.23;5.70;;;2.40;95.60;;;;;;6183964;23;20378;-71
2022/01/14 04:57:43;;;;;;;11.27;6.10;;;2.30;95.70;;;;;;6183787;23;20425;-72
2022/01/14 05:00:15;;;;;;;12.15;6.07;;;2.30;96.00;;;;;;6183708;23;20008;-70
2022/01/14 05:02:40;;;;;;;10.45;6.07;;;2.30;96.00;;;;;;6183594;23;19993;-71
2022/01/14 05:05:08;;;;;;;9.25;5.43;;;2.30;96.20;;;;;;6183838;23;20080;-71
2022/01/14 05:07:35;;;;;;;11.15;5.97;;;2.40;96.20;;;;;;6183300;23;20467;-70
2022/01/14 05:12:28;;;;;;;9.68;5.60;;;2.30;96.30;;;;;;6193420;23;20421;-71
2022/01/14 05:14:54;;;;;;;10.88;6.40;;;2.30;96.40;;;;;;6183676;23;20067;-72
2022/01/14 05:17:20;;;;;;;9.32;5.53;;;2.30;96.50;;;;;;6183737;23;20060;-72
2022/01/14 05:19:45;;;;;;;10.57;6.18;;;2.30;96.60;;;;;;6183708;23;20067;-71
2022/01/14 05:22:11;;;;;;;10.88;5.82;;;2.30;96.70;;;;;;6184024;23;20001;-71
2022/01/14 05:24:37;;;;;;;10.77;5.57;;;2.30;96.80;;;;;;6183744;23;20028;-72
2022/01/14 05:27:03;;;;;;;10.05;5.53;;;2.30;97.00;;;;;;6183683;23;20440;-72
2022/01/14 05:29:28;;;;;;;10.02;5.90;;;2.30;97.10;;;;;;6184019;23;20371;-73
2022/01/14 05:32:02;;;;;;;10.32;5.47;;;2.30;97.10;;;;;;6183954;23;20012;-72
2022/01/14 05:34:32;;;;;;;11.32;6.15;;;2.30;97.30;;;;;;6183780;23;20013;-72
2022/01/14 05:37:00;;;;;;;10.93;6.15;;;2.30;97.30;;;;;;6157320;23;20021;-72
2022/01/14 05:39:26;;;;;;;11.07;6.60;;;2.30;97.50;;;;;;6183574;23;20071;-72
2022/01/14 05:41:53;;;;;;;11.00;6.78;;;2.30;97.60;;;;;;6183384;23;20369;-72
2022/01/14 05:44:19;;;;;;;11.63;6.55;;;2.30;97.60;;;;;;6183234;23;20005;-72
2022/01/14 05:46:45;;;;;;;12.02;6.78;;;2.30;97.70;;;;;;6183611;23;20008;-72
2022/01/14 05:49:11;;;;;;;12.25;6.50;;;2.30;97.80;;;;;;6183308;23;20001;-73
2022/01/14 05:51:36;;;;;;;10.85;6.38;;;2.30;97.80;;;;;;6183319;23;20005;-73
2022/01/14 05:54:02;;;;;;;10.80;6.45;;;2.30;97.80;;;;;;6183165;23;20247;-73
2022/01/14 05:56:28;;;;;;;9.77;5.82;;;2.30;97.80;;;;;;6184377;23;20055;-73
2022/01/14 05:58:53;;;;;;;10.45;6.03;;;2.40;97.70;;;;;;6185070;23;20001;-73
2022/01/14 06:01:20;;;;;;;10.75;5.82;;;2.40;97.70;;;;;;6186130;23;20001;-71
2022/01/14 06:03:46;;;;;;;10.35;5.82;;;2.40;97.60;;;;;;6185437;23;20059;-72
2022/01/14 06:06:12;;;;;;;11.02;5.93;;;2.40;97.50;;;;;;6185227;23;20048;-73
2022/01/14 06:08:37;;;;;;;10.27;5.90;;;2.40;97.50;;;;;;6185625;23;20079;-71
2022/01/14 06:11:03;;;;;;;10.60;5.82;;;2.40;97.50;;;;;;6185778;23;20033;-72
2022/01/14 06:13:29;;;;;;;11.02;5.93;;;2.40;97.50;;;;;;6185201;23;20024;-71
2022/01/14 06:15:54;;;;;;;11.05;6.50;;;2.50;97.50;;;;;;6185310;23;20754;-72
2022/01/14 06:18:20;;;;;;;11.57;6.05;;;2.50;97.50;;;;;;6185244;23;20055;-71
2022/01/14 06:20:46;;;;;;;11.45;6.45;;;2.50;97.50;;;;;;6184930;23;20009;-72
2022/01/14 06:23:12;;;;;;;10.60;5.93;;;2.50;97.10;;;;;;6158578;23;20005;-72
2022/01/14 06:25:38;;;;;;;11.30;6.28;;;2.50;97.10;;;;;;6185129;23;20032;-72
2022/01/14 06:28:04;;;;;;;11.13;6.10;;;2.50;97.00;;;;;;6184662;23;20008;-72
2022/01/14 06:30:29;;;;;;;11.95;6.35;;;2.50;97.10;;;;;;6158039;23;20017;-71
2022/01/14 06:32:56;;;;;;;11.27;5.90;;;2.50;97.10;;;;;;6185168;23;20361;-71
2022/01/14 06:35:23;;;;;;;11.52;6.35;;;2.50;97.10;;;;;;6184755;23;20009;-71
2022/01/14 06:37:49;;;;;;;11.10;6.47;;;2.50;97.10;;;;;;6184780;23;20005;-71
2022/01/14 06:40:15;;;;;;;8.70;5.43;;;2.60;96.90;;;;;;6185170;23;20484;-71
2022/01/14 06:42:41;;;;;;;9.63;5.50;;;2.60;96.80;;;;;;6184851;23;20485;-71
2022/01/14 06:45:08;;;;;;;9.63;5.50;;;2.60;96.80;;;;;;6158693;23;20012;-72
2022/01/14 06:47:34;;;;;;;10.75;6.20;;;2.70;96.50;;;;;;6158601;23;20009;-72
2022/01/14 06:50:00;;;;;;;11.45;5.70;;;2.70;96.30;;;;;;6184962;23;20332;-72
2022/01/14 06:52:26;;;;;;;11.18;6.47;;;2.70;96.40;;;;;;6185067;23;20004;-73
2022/01/14 06:54:52;;;;;;;11.95;6.75;;;2.70;96.40;;;;;;6158614;23;20005;-72
2022/01/14 06:57:18;;;;;;;11.30;6.10;;;2.70;96.40;;;;;;6184931;23;20032;-72
2022/01/14 06:59:43;;;;;;;11.05;6.20;;;2.70;96.10;;;;;;6185071;23;19997;-73
2022/01/14 07:02:12;;;;;;;9.23;5.10;;;2.80;95.80;;;;;;6184693;23;20009;-72
2022/01/14 07:04:37;;;;;;;9.38;5.45;;;2.90;95.40;;;;;;6185020;23;20005;-73
2022/01/14 07:07:03;;;;;;;9.35;5.07;;;2.90;95.70;;;;;;6184166;23;20333;-72
2022/01/14 07:09:31;;;;;;;10.30;5.35;;;2.90;95.40;;;;;;6184083;23;20008;-72
2022/01/14 07:11:59;;;;;;;9.35;5.10;;;2.90;95.20;;;;;;6184465;23;20433;-75
2022/01/14 07:14:25;;;;;;;11.18;5.30;;;3.00;94.90;;;;;;6184539;23;20326;-72
2022/01/14 07:16:51;;;;;;;10.55;5.32;;;3.00;94.70;;;;;;6157921;23;20001;-72
2022/01/14 07:19:20;;;;;;;8.85;4.95;;;3.10;94.40;;;;;;6184389;23;20036;-72
2022/01/14 07:21:45;;;;;;;10.00;5.28;;;3.10;94.50;;;;;;6157675;23;20005;-73
2022/01/14 07:24:13;;;;;;;8.30;4.85;;;3.10;94.30;;;;;;6184760;23;20015;-73
2022/01/14 07:26:40;;;;;;;10.13;5.40;;;3.20;94.10;;;;;;6184503;23;20000;-71
2022/01/14 07:29:06;;;;;;;9.60;5.28;;;3.10;94.10;;;;;;6184559;23;20039;-71
2022/01/14 07:31:31;;;;;;;10.32;5.60;;;3.20;94.10;;;;;;6184883;23;20001;-72
2022/01/14 07:33:57;;;;;;;11.20;5.63;;;3.20;94.00;;;;;;6184407;23;20032;-72
2022/01/14 07:36:23;;;;;;;10.73;6.00;;;3.20;93.90;;;;;;6184713;23;20001;-72
2022/01/14 07:38:49;;;;;;;8.93;5.53;;;3.20;93.80;;;;;;6184404;23;20001;-72
2022/01/14 07:41:15;;;;;;;11.23;5.82;;;3.30;93.60;;;;;;6184466;23;20314;-71
2022/01/14 07:43:46;;;;;;;9.00;5.30;;;3.30;93.60;;;;;;6184360;23;20008;-73
2022/01/14 07:46:11;;;;;;;12.20;6.32;;;3.30;93.60;;;;;;6184596;23;20080;-71
2022/01/14 07:48:37;;;;;;;11.65;6.40;;;3.20;93.60;;;;;;6184723;23;20040;-71
2022/01/14 07:51:03;;;;;;;10.52;6.00;;;3.30;93.60;;;;;;6184468;23;20413;-72
2022/01/14 07:53:28;;;;;;;12.10;6.53;;;3.30;93.40;;;;;;6184459;23;20002;-71
2022/01/14 07:55:54;;;;;;;10.45;6.07;;;3.30;93.50;;;;;;6184513;23;20001;-72
2022/01/14 07:58:21;;;;;;;11.02;6.10;;;3.30;93.60;;;;;;6184008;23;20024;-72
2022/01/14 08:00:46;;;;;;;13.85;7.20;;;3.20;93.50;;;;;;6184026;23;20015;-71
2022/01/14 08:03:12;;;;;;;11.38;6.95;;;3.30;93.40;;;;;;6184145;23;20081;-71
2022/01/14 08:05:38;;;;;;;10.95;6.15;;;3.30;93.50;;;;;;6184060;23;20008;-72
2022/01/14 08:08:04;;;;;;;11.68;6.60;;;3.30;93.20;;;;;;6184312;23;20021;-71
2022/01/14 08:10:31;;;;;;;12.45;6.55;;;3.30;93.30;;;;;;6183631;23;20433;-72
2022/01/14 08:12:57;;;;;;;13.13;6.90;;;3.30;93.30;;;;;;6184238;23;20012;-72
2022/01/14 08:15:23;;;;;;;14.15;8.07;;;3.30;93.10;;;;;;6184502;23;20406;-72
2022/01/14 08:17:49;;;;;;;14.40;8.23;;;3.30;93.00;;;;;;6184057;23;19997;-73
2022/01/14 08:20:15;;;;;;;13.43;7.28;;;3.40;93.10;;;;;;6184381;23;19997;-71
2022/01/14 08:22:41;;;;;;;13.73;7.85;;;3.40;92.60;;;;;;6184038;23;20001;-73
2022/01/14 08:25:09;;;;;;;12.93;7.78;;;3.40;92.80;;;;;;6184187;23;20059;-72
2022/01/14 08:27:35;;;;;;;13.60;7.57;;;3.40;92.80;;;;;;6184233;23;19997;-73
2022/01/14 08:30:02;;;;;;;15.63;9.05;;;3.40;92.70;;;;;;6184381;23;20005;-72
2022/01/14 08:32:28;;;;;;;15.85;9.38;;;3.40;92.60;;;;;;6183815;23;20005;-72
2022/01/14 08:34:54;;;;;;;15.05;8.55;;;3.40;92.60;;;;;;6183885;23;20024;-71
2022/01/14 08:37:19;;;;;;;15.48;8.65;;;3.40;92.50;;;;;;6184255;23;20001;-72
2022/01/14 08:39:45;;;;;;;15.80;9.15;;;3.40;92.50;;;;;;6184099;23;20001;-72
2022/01/14 08:42:12;;;;;;;15.63;9.10;;;3.50;92.30;;;;;;6183590;23;20004;-73
2022/01/14 08:44:39;;;;;;;15.35;8.98;;;3.50;92.30;;;;;;6183842;23;20006;-72
2022/01/14 08:47:09;;;;;;;15.23;9.48;;;3.50;92.10;;;;;;6183610;23;20005;-72
2022/01/14 08:49:35;;;;;;;15.02;9.00;;;3.50;92.20;;;;;;6183853;23;20017;-73
2022/01/14 08:52:01;;;;;;;16.08;8.68;;;3.40;92.20;;;;;;6183821;23;20063;-73
2022/01/14 08:54:27;;;;;;;17.23;10.02;;;3.50;92.00;;;;;;6184425;23;20001;-73
2022/01/14 08:56:52;;;;;;;18.70;9.23;;;3.50;92.20;;;;;;6183550;23;20004;-71
2022/01/14 08:59:18;;;;;;;15.23;9.52;;;3.50;92.00;;;;;;6183242;23;20001;-72
2022/01/14 09:01:45;;;;;;;16.25;9.10;;;3.50;91.80;;;;;;6183625;23;20008;-73
2022/01/14 09:04:12;;;;;;;17.65;10.18;;;3.50;91.80;;;;;;6183654;23;20006;-74
2022/01/14 09:06:38;;;;;;;16.70;9.57;;;3.50;92.00;;;;;;6183658;23;20084;-73
2022/01/14 09:09:04;;;;;;;18.10;9.52;;;3.50;91.80;;;;;;6183700;23;20087;-72
2022/01/14 09:11:29;;;;;;;15.52;9.07;;;3.50;91.70;;;;;;6183835;23;20005;-71
2022/01/14 09:13:55;;;;;;;16.73;9.05;;;3.50;91.50;;;;;;6183680;23;20037;-73
2022/01/14 09:16:20;;;;;;;15.70;9.07;;;3.50;91.50;;;;;;6183508;23;20421;-72
2022/01/14 09:18:50;;;;;;;17.30;10.27;;;3.60;91.40;;;;;;6183983;23;20001;-72
2022/01/14 09:21:17;;;;;;;17.00;9.60;;;3.60;91.50;;;;;;6183622;23;20005;-72
2022/01/14 09:23:51;;;;;;;17.38;9.68;;;3.50;91.50;;;;;;6183709;23;20005;-73
2022/01/14 09:26:18;;;;;;;17.63;9.52;;;3.50;91.60;;;;;;6183586;23;20438;-72
2022/01/14 09:28:43;;;;;;;15.98;9.65;;;3.50;91.40;;;;;;6184031;23;20008;-70
2022/01/14 09:31:09;;;;;;;17.60;9.52;;;3.60;91.40;;;;;;6183373;23;20005;-71
2022/01/14 09:33:35;;;;;;;17.02;9.77;;;3.60;91.60;;;;;;6183685;23;20017;-70
2022/01/14 09:36:01;;;;;;;18.08;9.70;;;3.60;91.30;;;;;;6183388;23;20001;-74
2022/01/14 09:38:27;;;;;;;15.77;8.88;;;3.60;91.30;;;;;;6183615;23;20011;-72
2022/01/14 09:40:55;;;;;;;16.27;9.32;;;3.60;91.10;;;;;;6183939;23;20076;-73
2022/01/14 09:43:21;;;;;;;17.58;9.65;;;3.60;91.20;;;;;;6184007;23;20001;-72
2022/01/14 09:45:51;;;;;;;16.00;9.50;;;3.60;91.30;;;;;;6184263;23;20005;-72
2022/01/14 09:48:16;;;;;;;16.00;8.57;;;3.60;91.00;;;;;;6183644;23;20355;-71
2022/01/14 09:50:44;;;;;;;16.85;10.15;;;3.60;90.90;;;;;;6183751;23;20005;-72
2022/01/14 09:53:16;;;;;;;15.18;9.13;;;3.60;90.90;;;;;;6184200;23;20039;-74
2022/01/14 09:55:43;;;;;;;16.90;10.85;;;3.60;90.70;;;;;;6183765;23;20001;-72
2022/01/14 09:58:09;;;;;;;16.20;9.35;;;3.70;90.80;;;;;;6183537;23;20425;-75
2022/01/14 10:00:36;;;;;;;15.60;9.57;;;3.60;90.80;;;;;;6183677;23;20001;-72
2022/01/14 10:03:24;;;;;;;15.68;8.38;;;3.70;90.60;;;;;;6183888;23;20008;-75
2022/01/14 10:05:53;;;;;;;15.43;9.10;;;3.70;90.40;;;;;;6183093;23;20008;-73
2022/01/14 10:08:25;;;;;;;16.45;9.32;;;3.70;90.50;;;;;;6183960;23;20028;-74
2022/01/14 10:10:58;;;;;;;16.35;9.48;;;3.70;90.40;;;;;;6183140;23;20001;-74
2022/01/14 10:13:33;;;;;;;16.48;9.77;;;3.70;90.60;;;;;;6183437;23;20005;-73
2022/01/14 10:16:03;;;;;;;15.77;8.45;;;3.70;90.10;;;;;;6183488;23;20024;-73
2022/01/14 10:18:30;;;;;;;15.85;9.02;;;3.80;90.00;;;;;;6183326;23;19997;-73
2022/01/14 10:21:01;;;;;;;18.08;10.63;;;3.80;90.00;;;;;;6183620;23;20095;-75
2022/01/14 10:23:43;;;;;;;15.38;8.50;;;3.70;90.00;;;;;;6183241;23;20160;-75
2022/01/14 10:26:10;;;;;;;14.30;8.70;;;3.80;89.70;;;;;;6183434;23;20005;-74
2022/01/14 10:28:36;;;;;;;14.27;8.50;;;3.80;89.50;;;;;;6182775;23;20028;-74
2022/01/14 10:31:03;;;;;;;14.55;9.60;;;3.80;89.50;;;;;;6182759;23;20422;-75
2022/01/14 10:33:33;;;;;;;16.52;9.70;;;3.80;90.00;;;;;;6183942;23;20071;-76
2022/01/14 10:35:58;;;;;;;15.50;8.82;;;3.80;89.50;;;;;;6184153;23;20005;-74
2022/01/14 10:38:26;;;;;;;14.35;8.25;;;3.80;89.60;;;;;;6185083;23;20008;-74
2022/01/14 10:40:56;;;;;;;15.15;8.70;;;3.90;89.00;;;;;;6183080;23;20005;-74
2022/01/14 10:43:31;;;;;;;13.82;8.00;;;3.90;89.10;;;;;;6185365;23;20077;-75
2022/01/14 10:45:57;;;;;;;14.48;8.25;;;3.90;88.70;;;;;;6185473;23;20005;-75
2022/01/14 10:48:31;;;;;;;13.30;8.15;;;3.90;88.80;;;;;;6185321;23;20055;-73
2022/01/14 10:51:03;;;;;;;14.30;8.10;;;3.90;88.50;;;;;;6185041;23;20015;-73
2022/01/14 10:53:35;;;;;;;13.10;7.45;;;3.90;88.40;;;;;;6185718;23;19997;-72
2022/01/14 10:56:09;;;;;;;13.02;7.93;;;3.90;88.70;;;;;;6185149;23;20090;-74
2022/01/14 10:58:47;;;;;;;14.57;7.70;;;4.00;88.40;;;;;;6185245;23;20008;-74
2022/01/14 11:01:22;;;;;;;11.95;6.60;;;4.00;87.80;;;;;;6185255;23;20103;-74
2022/01/14 11:03:53;;;;;;;12.73;7.32;;;4.10;87.00;;;;;;6184927;23;20005;-73
2022/01/14 11:06:21;;;;;;;14.57;7.18;;;4.10;87.30;;;;;;6184953;23;20004;-74
2022/01/14 11:08:49;;;;;;;13.75;6.63;;;4.10;87.40;;;;;;6184808;23;20001;-73
2022/01/14 11:11:15;;;;;;;11.82;6.53;;;4.00;87.80;;;;;;6184949;23;20345;-74
2022/01/14 11:13:44;;;;;;;12.35;6.32;;;4.10;87.50;;;;;;6184996;23;20043;-73
2022/01/14 11:16:09;;;;;;;11.52;6.60;;;4.10;87.00;;;;;;6184885;23;20001;-74
2022/01/14 11:18:38;;;;;;;12.52;7.03;;;4.20;87.30;;;;;;6184954;23;20027;-76
2022/01/14 11:23:48;;;;;;;11.63;6.20;;;4.20;86.70;;;;;;6185013;23;20381;-72
2022/01/14 11:26:19;;;;;;;12.00;6.47;;;4.10;87.00;;;;;;6184806;23;20003;-72
2022/01/14 11:28:46;;;;;;;11.07;6.18;;;4.20;87.00;;;;;;6184666;23;20080;-73
2022/01/14 11:31:29;;;;;;;11.77;6.30;;;4.20;86.80;;;;;;6184879;23;20001;-73
2022/01/14 11:33:56;;;;;;;11.85;6.85;;;4.20;86.80;;;;;;6184661;23;20373;-73
2022/01/14 11:36:22;;;;;;;10.63;5.95;;;4.20;86.80;;;;;;6158116;23;20377;-73
2022/01/14 11:38:49;;;;;;;11.18;6.30;;;4.20;87.00;;;;;;6184592;23;20001;-73
2022/01/14 11:41:20;;;;;;;10.05;5.63;;;4.30;86.70;;;;;;6184574;23;20008;-73
2022/01/14 11:43:54;;;;;;;11.23;6.90;;;4.20;87.00;;;;;;6184539;23;20080;-73
2022/01/14 11:46:32;;;;;;;10.82;6.32;;;4.20;87.30;;;;;;6158379;23;20009;-72
2022/01/14 11:49:00;;;;;;;11.07;6.10;;;4.20;87.60;;;;;;6184714;23;20001;-74
2022/01/14 11:51:25;;;;;;;15.02;10.82;;;4.20;87.60;;;;;;6184535;23;20005;-74
2022/01/14 11:54:13;;;;;;;12.25;7.03;;;4.20;87.80;;;;;;6184148;23;20368;-73
2022/01/14 11:56:44;;;;;;;12.05;5.88;;;4.20;87.90;;;;;;6183766;23;20104;-74
2022/01/14 11:59:22;;;;;;;11.02;6.60;;;4.20;87.30;;;;;;6184777;23;19997;-72
2022/01/14 12:01:52;;;;;;;15.02;6.35;;;4.20;87.30;;;;;;6184536;23;20028;-73
2022/01/14 12:04:19;;;;;;;9.82;5.85;;;4.20;87.50;;;;;;6184550;23;20005;-73
2022/01/14 12:06:50;;;;;;;8.95;5.55;;;4.30;87.00;;;;;;6184418;23;20024;-73
2022/01/14 12:09:24;;;;;;;11.43;5.90;;;4.30;86.60;;;;;;6185064;23;20005;-73
2022/01/14 12:12:30;;;;;;;9.98;5.72;;;4.40;86.40;;;;;;6184440;23;20009;-74
2022/01/14 12:15:01;;;;;;;9.77;5.72;;;4.40;86.20;;;;;;6184520;23;20004;-75
2022/01/14 12:17:39;;;;;;;9.82;5.60;;;4.50;86.20;;;;;;6184544;23;20072;-72
2022/01/14 12:20:17;;;;;;;10.15;5.03;;;4.60;85.30;;;;;;6184449;23;20028;-73
2022/01/14 12:23:06;;;;;;;9.35;5.28;;;4.70;83.90;;;;;;6158000;23;20012;-74
2022/01/14 12:25:40;;;;;;;9.55;4.93;;;4.70;83.80;;;;;;6184723;23;20028;-73
2022/01/14 12:28:20;;;;;;;8.45;4.50;;;4.80;83.60;;;;;;6184671;23;19998;-76
2022/01/14 12:31:03;;;;;;;7.63;4.43;;;4.80;83.40;;;;;;6158330;23;20015;-74
2022/01/14 12:33:42;;;;;;;7.85;4.22;;;4.80;83.10;;;;;;6184703;23;20031;-73
2022/01/14 12:36:19;;;;;;;9.80;5.20;;;5.00;82.30;;;;;;6214393;23;20067;-73
2022/01/14 12:38:46;;;;;;;9.00;4.75;;;5.00;82.40;;;;;;6214373;23;20075;-73
2022/01/14 12:41:23;;;;;;;8.43;4.20;;;4.90;82.40;;;;;;6214500;23;20001;-73
2022/01/14 12:43:54;;;;;;;7.07;3.75;;;5.00;82.00;;;;;;6214391;23;20107;-73
2022/01/14 12:49:07;;;;;;;7.97;4.55;;;5.00;82.20;;;;;;6224423;23;20277;-73
2022/01/14 12:51:33;;;;;;;8.20;4.10;;;5.00;82.10;;;;;;6214553;23;20004;-73
2022/01/14 12:54:02;;;;;;;8.50;4.40;;;5.00;81.90;;;;;;6214599;23;20004;-73
2022/01/14 12:56:33;;;;;;;8.88;3.90;;;5.00;81.90;;;;;;6214318;23;19997;-73
2022/01/14 12:59:09;;;;;;;7.68;3.90;;;5.00;81.80;;;;;;6214353;23;20032;-73
2022/01/14 13:01:52;;;;;;;6.97;3.80;;;5.10;81.40;;;;;;6212580;23;20332;-73
2022/01/14 13:04:19;;;;;;;;;;;5.00;81.70;;;;;;6214426;23;20005;-73
2022/01/14 13:06:46;;;;;;;7.55;3.70;;;5.00;82.10;;;;;;6213726;23;19979;-72
2022/01/14 13:09:13;;;;;;;8.40;4.10;;;4.90;82.30;;;;;;6214106;23;20035;-74
2022/01/14 13:12:04;;;;;;;6.20;3.55;;;5.00;82.60;;;;;;6213689;23;20001;-74
2022/01/14 13:14:44;;;;;;;6.63;3.45;;;5.00;82.00;;;;;;6213834;23;20320;-73
2022/01/14 13:17:17;;;;;;;7.30;3.53;;;5.00;81.90;;;;;;6213887;23;19996;-72
2022/01/14 13:19:45;;;;;;;6.00;3.30;;;5.00;82.10;;;;;;6213763;23;20297;-73